Time;durP1;ratioP1;P1;durP2;ratioP2;P2;SDS_P1;SDS_P2;PMS_P1;PMS_P2;Temp;Humidity;BMP_temperature;BMP_pressure;BME280_temperature;BME280_humidity;BME280_pressure;Samples;Min_cycle;Max_cycle;Signal;HPM_P1;HPM_P2
2021/12/19 00:00:13;;;;;;;14.63;11.27;;;3.70;99.90;;;;;;5016123;28;20113;-67
2021/12/19 00:10:29;;;;;;;18.55;12.52;;;3.80;99.90;;;;;;5011207;28;20401;-66
2021/12/19 00:12:56;;;;;;;18.20;13.00;;;3.80;99.90;;;;;;5010049;28;20157;-66
2021/12/19 00:15:22;;;;;;;17.58;12.75;;;3.80;99.90;;;;;;5007178;28;20026;-66
2021/12/19 00:17:48;;;;;;;14.90;11.60;;;3.80;99.90;;;;;;5007217;28;20018;-66
2021/12/19 00:20:14;;;;;;;16.33;12.63;;;3.70;99.90;;;;;;5008047;28;20036;-66
2021/12/19 00:22:39;;;;;;;15.35;11.63;;;3.80;99.90;;;;;;5010027;28;20101;-67
2021/12/19 00:25:06;;;;;;;18.08;12.20;;;3.80;99.90;;;;;;5013833;28;20037;-66
2021/12/19 00:27:32;;;;;;;18.88;12.07;;;3.80;99.90;;;;;;5009227;28;20029;-67
2021/12/19 00:29:58;;;;;;;15.80;11.95;;;3.80;99.90;;;;;;4998773;28;20102;-68
2021/12/19 00:32:24;;;;;;;14.73;12.50;;;3.80;99.90;;;;;;5010967;28;20022;-66
2021/12/19 00:34:51;;;;;;;14.70;12.23;;;3.80;99.90;;;;;;5009455;28;20028;-68
2021/12/19 00:37:19;;;;;;;17.27;12.68;;;3.80;99.90;;;;;;5005029;28;20034;-66
2021/12/19 00:39:46;;;;;;;15.32;10.98;;;3.80;99.90;;;;;;5009332;28;20030;-66
2021/12/19 00:42:14;;;;;;;14.82;11.35;;;3.80;99.90;;;;;;5005407;28;20029;-68
2021/12/19 00:44:42;;;;;;;15.77;11.90;;;3.80;99.90;;;;;;5009766;28;20046;-66
2021/12/19 00:47:08;;;;;;;12.50;10.88;;;3.80;99.90;;;;;;5022738;28;20038;-66
2021/12/19 00:49:36;;;;;;;17.65;12.30;;;3.80;99.90;;;;;;5005430;28;20073;-66
2021/12/19 00:52:04;;;;;;;15.30;11.73;;;3.80;99.90;;;;;;5005564;28;20081;-67
2021/12/19 00:54:30;;;;;;;17.75;12.70;;;3.80;99.90;;;;;;5008716;28;20113;-66
2021/12/19 00:56:55;;;;;;;12.73;10.68;;;3.80;99.90;;;;;;5022394;28;20438;-66
2021/12/19 00:59:21;;;;;;;14.50;10.55;;;3.80;99.90;;;;;;5013266;28;20033;-66
2021/12/19 01:01:48;;;;;;;15.88;11.18;;;3.80;99.90;;;;;;5005663;28;20076;-68
2021/12/19 01:04:16;;;;;;;16.98;11.02;;;3.90;99.90;;;;;;5008192;28;20022;-67
2021/12/19 01:06:44;;;;;;;14.95;10.20;;;3.90;99.90;;;;;;5011102;28;20390;-66
2021/12/19 01:09:10;;;;;;;13.02;10.05;;;3.90;99.90;;;;;;5022665;28;20033;-67
2021/12/19 01:11:37;;;;;;;16.30;11.68;;;3.90;99.90;;;;;;5009154;28;20470;-66
2021/12/19 01:14:04;;;;;;;14.13;10.52;;;3.90;99.90;;;;;;5010048;28;20022;-67
2021/12/19 01:16:30;;;;;;;13.23;9.73;;;3.90;99.90;;;;;;5007927;28;20527;-67
2021/12/19 01:18:56;;;;;;;14.68;10.77;;;3.80;99.90;;;;;;5008012;28;20069;-66
2021/12/19 01:21:21;;;;;;;13.20;10.18;;;3.90;99.90;;;;;;5007311;28;20030;-66
2021/12/19 01:23:47;;;;;;;12.57;9.60;;;3.80;99.90;;;;;;5009028;28;20028;-66
2021/12/19 01:26:13;;;;;;;12.43;10.25;;;3.80;99.90;;;;;;5019803;28;20187;-66
2021/12/19 01:28:39;;;;;;;12.38;9.23;;;3.80;99.90;;;;;;5009382;28;20030;-66
2021/12/19 01:31:06;;;;;;;9.25;7.57;;;3.80;99.90;;;;;;5005523;28;20040;-66
2021/12/19 01:33:32;;;;;;;10.45;8.65;;;3.70;99.90;;;;;;5006605;28;20033;-66
2021/12/19 01:35:57;;;;;;;9.75;6.85;;;3.80;99.90;;;;;;5007367;28;20025;-68
2021/12/19 01:38:23;;;;;;;8.30;6.68;;;3.70;99.90;;;;;;5009182;28;20018;-66
2021/12/19 01:40:49;;;;;;;7.90;7.05;;;3.80;99.90;;;;;;5007492;28;20396;-67
2021/12/19 01:43:20;;;;;;;7.53;6.45;;;3.80;99.90;;;;;;5006503;28;20425;-67
2021/12/19 01:45:46;;;;;;;7.70;6.25;;;3.80;99.90;;;;;;5008282;28;20464;-66
2021/12/19 01:48:13;;;;;;;6.97;6.25;;;3.70;99.90;;;;;;5008936;28;20102;-66
2021/12/19 01:50:40;;;;;;;6.70;5.15;;;3.70;99.90;;;;;;5008179;28;20101;-66
2021/12/19 01:53:09;;;;;;;6.38;5.60;;;3.80;99.90;;;;;;5008242;28;20046;-66
2021/12/19 01:55:35;;;;;;;6.85;5.68;;;3.80;99.90;;;;;;5006376;28;20034;-67
2021/12/19 01:58:01;;;;;;;6.93;5.18;;;3.80;99.90;;;;;;5006938;28;20076;-67
2021/12/19 02:00:34;;;;;;;6.35;5.32;;;3.80;99.90;;;;;;5009079;28;20433;-66
2021/12/19 02:03:00;;;;;;;9.15;4.85;;;3.80;99.90;;;;;;5008209;28;20014;-65
2021/12/19 02:05:27;;;;;;;5.25;4.72;;;3.80;99.90;;;;;;5008230;28;20022;-68
2021/12/19 02:07:56;;;;;;;6.13;5.35;;;3.80;99.90;;;;;;5004070;28;20034;-67
2021/12/19 02:10:25;;;;;;;5.65;4.57;;;3.80;99.90;;;;;;5008135;28;20116;-66
2021/12/19 02:12:53;;;;;;;5.63;4.57;;;3.80;99.90;;;;;;5008748;28;20026;-68
2021/12/19 02:15:22;;;;;;;5.80;4.93;;;3.80;99.90;;;;;;5009956;28;20044;-67
2021/12/19 02:17:49;;;;;;;6.00;4.88;;;3.80;99.90;;;;;;5010080;28;20025;-66
2021/12/19 02:20:16;;;;;;;5.93;4.78;;;3.90;99.90;;;;;;5003208;28;20041;-66
2021/12/19 02:22:43;;;;;;;7.78;5.13;;;3.90;99.90;;;;;;5007510;28;20018;-66
2021/12/19 02:25:09;;;;;;;5.82;5.22;;;3.90;99.90;;;;;;5008137;28;20544;-67
2021/12/19 02:27:35;;;;;;;8.07;5.60;;;3.80;99.90;;;;;;5000993;28;20034;-68
2021/12/19 02:30:02;;;;;;;5.75;4.93;;;3.80;99.90;;;;;;5005512;28;20022;-65
2021/12/19 02:32:30;;;;;;;6.78;5.50;;;3.80;99.90;;;;;;5006472;28;20032;-66
2021/12/19 02:34:59;;;;;;;6.82;5.68;;;3.80;99.90;;;;;;5011742;28;20033;-66
2021/12/19 02:48:13;;;;;;;8.18;5.70;;;3.70;99.90;;;;;;5005952;28;20095;-66
2021/12/19 02:50:48;;;;;;;7.20;5.38;;;3.70;99.90;;;;;;5007733;28;20474;-65
2021/12/19 02:53:17;;;;;;;8.18;6.10;;;3.70;99.90;;;;;;5005224;28;20069;-66
2021/12/19 02:55:43;;;;;;;8.00;6.03;;;3.60;99.90;;;;;;5008367;28;20038;-66
2021/12/19 02:58:10;;;;;;;9.82;6.18;;;3.60;99.90;;;;;;5003648;28;20034;-66
2021/12/19 03:00:36;;;;;;;9.63;6.03;;;3.60;99.90;;;;;;5001719;28;20401;-65
2021/12/19 03:03:03;;;;;;;8.82;6.45;;;3.60;99.90;;;;;;5007822;28;20476;-65
2021/12/19 03:05:31;;;;;;;8.23;6.35;;;3.60;99.90;;;;;;5007138;28;20413;-68
2021/12/19 03:07:58;;;;;;;7.38;6.03;;;3.50;99.90;;;;;;5006768;28;20026;-65
2021/12/19 03:18:19;;;;;;;12.82;10.30;;;3.60;99.90;;;;;;5006037;28;20544;-65
2021/12/19 03:20:45;;;;;;;7.63;5.85;;;3.60;99.90;;;;;;5006559;28;20035;-67
2021/12/19 03:23:13;;;;;;;8.52;6.55;;;3.60;99.90;;;;;;5005854;28;20037;-65
2021/12/19 03:25:39;;;;;;;7.53;6.15;;;3.70;99.90;;;;;;5005549;28;20093;-65
2021/12/19 03:28:07;;;;;;;9.38;6.53;;;3.70;99.90;;;;;;5005875;28;20106;-67
2021/12/19 03:30:34;;;;;;;7.15;5.70;;;3.70;99.90;;;;;;5004159;28;20030;-66
2021/12/19 03:33:00;;;;;;;7.95;6.10;;;3.70;99.90;;;;;;5002963;28;20045;-67
2021/12/19 03:35:27;;;;;;;6.72;5.97;;;3.70;99.90;;;;;;5005539;28;20030;-68
2021/12/19 03:37:53;;;;;;;8.13;6.40;;;3.70;99.90;;;;;;5005970;28;20095;-66
2021/12/19 03:40:34;;;;;;;9.20;6.13;;;3.70;99.90;;;;;;5006128;28;20489;-66
2021/12/19 03:43:00;;;;;;;7.45;5.82;;;3.60;99.90;;;;;;5004481;28;20076;-66
2021/12/19 03:45:26;;;;;;;7.20;6.30;;;3.60;99.90;;;;;;5006020;28;20109;-65
2021/12/19 03:47:52;;;;;;;9.25;6.57;;;3.60;99.90;;;;;;5007006;28;20428;-66
2021/12/19 03:50:22;;;;;;;9.57;6.38;;;3.60;99.90;;;;;;5006602;28;20084;-66
2021/12/19 03:52:48;;;;;;;9.32;7.05;;;3.60;99.90;;;;;;5004248;28;20126;-65
2021/12/19 03:55:14;;;;;;;9.40;7.53;;;3.60;99.90;;;;;;5002714;28;20037;-65
2021/12/19 03:57:40;;;;;;;10.77;7.25;;;3.60;99.90;;;;;;5006071;28;20038;-66
2021/12/19 04:00:09;;;;;;;8.68;6.35;;;3.50;99.90;;;;;;5006595;28;20034;-67
2021/12/19 04:02:35;;;;;;;9.25;7.03;;;3.50;99.90;;;;;;5006919;28;20034;-65
2021/12/19 04:05:01;;;;;;;9.00;7.60;;;3.50;99.90;;;;;;5004626;28;20105;-66
2021/12/19 04:07:28;;;;;;;11.48;7.35;;;3.60;99.90;;;;;;5005342;28;20133;-65
2021/12/19 04:09:53;;;;;;;11.90;8.13;;;3.50;99.90;;;;;;5003542;28;20030;-67
2021/12/19 04:12:23;;;;;;;10.27;7.43;;;3.50;99.90;;;;;;5004383;28;20037;-66
2021/12/19 04:14:48;;;;;;;40.08;17.83;;;3.50;99.90;;;;;;5007437;28;20436;-65
2021/12/19 04:17:14;;;;;;;12.15;7.90;;;3.50;99.90;;;;;;5005600;28;20168;-66
2021/12/19 04:19:40;;;;;;;13.95;8.38;;;3.60;99.90;;;;;;5008380;28;20075;-67
2021/12/19 04:22:05;;;;;;;10.18;7.10;;;3.50;99.90;;;;;;5003340;28;20117;-67
2021/12/19 04:24:31;;;;;;;9.77;7.65;;;3.60;99.90;;;;;;5005310;28;20096;-66
2021/12/19 04:26:58;;;;;;;15.85;7.70;;;3.60;99.90;;;;;;5002583;28;20026;-67
2021/12/19 04:29:25;;;;;;;13.18;6.97;;;3.60;99.90;;;;;;5006107;28;20041;-65
2021/12/19 04:31:52;;;;;;;9.27;7.80;;;3.60;99.90;;;;;;5008069;28;20038;-67
2021/12/19 04:34:18;;;;;;;8.82;6.43;;;3.60;99.90;;;;;;5003086;28;20028;-67
2021/12/19 04:36:47;;;;;;;8.43;6.90;;;3.60;99.90;;;;;;5011950;28;20026;-66
2021/12/19 05:01:34;;;;;;;;;;;3.80;99.90;;;;;;5006405;28;20065;-66
2021/12/19 05:16:35;;;;;;;9.52;6.75;;;3.90;99.90;;;;;;5008456;28;20041;-66
2021/12/19 05:19:07;;;;;;;9.90;7.20;;;3.90;99.90;;;;;;5009628;28;20026;-65
2021/12/19 05:21:35;;;;;;;8.48;5.90;;;3.90;99.90;;;;;;5007404;28;20030;-67
2021/12/19 05:26:27;;;;;;;9.00;7.03;;;4.00;99.90;;;;;;5004302;28;20050;-68
2021/12/19 05:28:53;;;;;;;6.28;5.28;;;4.00;99.90;;;;;;5006804;28;20034;-65
2021/12/19 05:31:20;;;;;;;6.57;5.30;;;4.10;99.90;;;;;;5006772;28;20080;-66
2021/12/19 05:33:46;;;;;;;7.00;4.78;;;4.10;99.90;;;;;;5007719;28;20027;-67
2021/12/19 05:46:38;;;;;;;13.07;5.47;;;4.20;99.90;;;;;;5007573;28;20026;-66
2021/12/19 05:49:04;;;;;;;6.85;5.20;;;4.20;99.90;;;;;;5007253;28;20033;-68
2021/12/19 05:51:30;;;;;;;6.03;5.13;;;4.20;99.90;;;;;;5004101;28;20022;-68
2021/12/19 05:53:56;;;;;;;8.02;5.82;;;4.30;99.90;;;;;;5008336;28;20109;-67
2021/12/19 05:56:22;;;;;;;9.02;5.75;;;4.30;99.90;;;;;;5009560;28;20109;-66
2021/12/19 05:58:47;;;;;;;8.25;5.38;;;4.20;99.90;;;;;;5005277;28;20023;-65
2021/12/19 06:01:13;;;;;;;6.40;4.93;;;4.30;99.90;;;;;;5009691;28;20041;-65
2021/12/19 06:03:39;;;;;;;6.32;5.25;;;4.30;99.90;;;;;;5003016;28;20033;-65
2021/12/19 06:06:06;;;;;;;7.15;4.60;;;4.30;99.90;;;;;;5004058;28;20157;-67
2021/12/19 06:08:31;;;;;;;6.30;5.70;;;4.30;99.90;;;;;;5015632;28;20156;-66
2021/12/19 06:10:57;;;;;;;5.28;4.65;;;4.30;99.90;;;;;;5005328;28;20097;-65
2021/12/19 06:13:23;;;;;;;6.50;5.40;;;4.30;99.90;;;;;;5008306;28;20504;-66
2021/12/19 06:15:52;;;;;;;6.47;4.32;;;4.30;99.90;;;;;;5010029;28;20528;-67
2021/12/19 06:18:18;;;;;;;7.00;5.75;;;4.30;99.90;;;;;;5007179;28;20036;-66
2021/12/19 06:20:44;;;;;;;7.03;5.18;;;4.30;99.90;;;;;;5007793;28;20029;-66
2021/12/19 06:23:10;;;;;;;7.80;6.35;;;4.30;99.90;;;;;;5004043;28;20501;-66
2021/12/19 06:25:36;;;;;;;7.43;4.85;;;4.30;99.90;;;;;;5007733;28;20023;-66
2021/12/19 06:28:02;;;;;;;7.10;5.57;;;4.30;99.90;;;;;;5014188;28;20029;-68
2021/12/19 06:30:28;;;;;;;6.00;5.13;;;4.30;99.90;;;;;;5009822;28;20109;-67
2021/12/19 06:32:54;;;;;;;7.22;5.18;;;4.40;99.90;;;;;;5007415;28;20110;-66
2021/12/19 06:35:22;;;;;;;8.50;5.65;;;4.40;99.90;;;;;;5005526;28;20035;-67
2021/12/19 06:37:49;;;;;;;7.30;5.50;;;4.40;99.90;;;;;;5007520;28;20078;-68
2021/12/19 06:40:19;;;;;;;6.60;5.13;;;4.40;99.90;;;;;;5008564;28;20037;-66
2021/12/19 06:42:45;;;;;;;7.25;5.47;;;4.40;99.90;;;;;;5007035;28;20112;-67
2021/12/19 06:45:11;;;;;;;7.15;5.60;;;4.40;99.90;;;;;;5007591;28;20026;-67
2021/12/19 06:47:38;;;;;;;6.10;4.40;;;4.40;99.90;;;;;;5008025;28;20088;-65
2021/12/19 06:50:05;;;;;;;7.30;5.20;;;4.40;99.90;;;;;;5008564;28;20104;-66
2021/12/19 06:52:31;;;;;;;6.72;4.90;;;4.40;99.90;;;;;;5007235;28;20422;-66
2021/12/19 06:54:56;;;;;;;6.70;6.00;;;4.40;99.90;;;;;;5004357;28;20120;-68
2021/12/19 06:57:22;;;;;;;8.77;5.03;;;4.40;99.90;;;;;;5007499;28;20054;-66
2021/12/19 06:59:48;;;;;;;7.05;5.53;;;4.40;99.90;;;;;;5007770;28;20054;-65
2021/12/19 07:02:16;;;;;;;6.90;4.43;;;4.40;99.90;;;;;;5007608;28;20509;-66
2021/12/19 07:04:45;;;;;;;8.88;6.30;;;4.40;99.90;;;;;;5005677;28;20034;-66
2021/12/19 07:07:12;;;;;;;6.90;5.03;;;4.40;99.90;;;;;;5006490;28;20113;-68
2021/12/19 07:09:38;;;;;;;6.75;5.80;;;4.40;99.90;;;;;;5005460;28;20516;-65
2021/12/19 07:12:05;;;;;;;6.35;5.72;;;4.40;99.90;;;;;;5006645;28;20105;-66
2021/12/19 07:14:30;;;;;;;5.35;4.75;;;4.40;99.90;;;;;;5003214;28;20359;-66
2021/12/19 07:16:56;;;;;;;7.38;6.65;;;4.40;99.90;;;;;;5002053;28;20081;-65
2021/12/19 07:19:22;;;;;;;6.18;5.30;;;4.40;99.90;;;;;;4995591;28;20114;-66
2021/12/19 07:21:47;;;;;;;5.35;4.82;;;4.40;99.90;;;;;;5010362;28;20477;-65
2021/12/19 07:24:13;;;;;;;9.52;5.15;;;4.40;99.90;;;;;;5005454;28;20034;-66
2021/12/19 07:26:38;;;;;;;6.30;4.75;;;4.40;99.90;;;;;;5009679;28;20022;-66
2021/12/19 07:29:04;;;;;;;8.27;5.53;;;4.40;99.90;;;;;;5006043;28;20037;-66
2021/12/19 07:31:31;;;;;;;7.70;5.38;;;4.50;99.90;;;;;;5003628;28;20076;-65
2021/12/19 07:33:57;;;;;;;8.10;5.40;;;4.50;99.90;;;;;;5005470;28;20032;-66
2021/12/19 07:36:25;;;;;;;8.57;5.45;;;4.50;99.90;;;;;;5007563;28;20417;-65
2021/12/19 07:39:02;;;;;;;5.97;4.43;;;4.50;99.90;;;;;;5003993;28;20014;-65
2021/12/19 07:41:28;;;;;;;7.10;5.10;;;4.50;99.90;;;;;;5005297;28;20100;-65
2021/12/19 07:43:54;;;;;;;6.45;4.93;;;4.50;99.90;;;;;;5007174;28;20021;-66
2021/12/19 07:46:19;;;;;;;6.97;5.00;;;4.50;99.90;;;;;;5009337;28;20022;-66
2021/12/19 07:48:45;;;;;;;5.43;4.68;;;4.50;99.90;;;;;;5005309;28;20470;-65
2021/12/19 07:51:10;;;;;;;6.00;4.70;;;4.50;99.90;;;;;;5002550;28;20113;-65
2021/12/19 07:53:36;;;;;;;5.78;4.65;;;4.60;99.90;;;;;;5003367;28;20030;-65
2021/12/19 07:56:02;;;;;;;5.35;4.60;;;4.50;99.90;;;;;;5006160;28;20037;-68
2021/12/19 07:58:28;;;;;;;6.57;5.00;;;4.60;99.90;;;;;;5004461;28;20136;-66
2021/12/19 08:00:54;;;;;;;9.40;4.97;;;4.60;99.90;;;;;;5005482;28;20101;-66
2021/12/19 08:03:19;;;;;;;5.38;4.82;;;4.60;99.90;;;;;;5003864;28;20379;-66
2021/12/19 08:05:45;;;;;;;6.40;4.45;;;4.60;99.90;;;;;;5016650;28;20129;-65
2021/12/19 08:08:16;;;;;;;6.30;4.93;;;4.60;99.90;;;;;;5004787;28;20049;-65
2021/12/19 08:13:08;;;;;;;5.85;4.95;;;4.70;99.90;;;;;;5010503;28;20455;-68
2021/12/19 08:15:34;;;;;;;7.28;4.93;;;4.70;99.90;;;;;;5009772;28;20022;-66
2021/12/19 08:18:00;;;;;;;5.90;4.63;;;4.70;99.90;;;;;;5010331;28;20022;-65
2021/12/19 08:20:27;;;;;;;5.25;4.50;;;4.70;99.90;;;;;;5009474;28;20033;-65
2021/12/19 08:22:53;;;;;;;5.40;4.80;;;4.70;99.90;;;;;;5006010;28;20026;-68
2021/12/19 08:25:19;;;;;;;5.55;4.55;;;4.70;99.90;;;;;;5010738;28;20121;-66
2021/12/19 08:27:45;;;;;;;5.15;4.65;;;4.80;99.90;;;;;;5006825;28;20109;-67
2021/12/19 08:30:12;;;;;;;6.35;4.72;;;4.80;99.90;;;;;;5007651;28;20093;-66
2021/12/19 08:32:38;;;;;;;4.95;4.43;;;4.80;99.90;;;;;;5007063;28;20109;-66
2021/12/19 08:35:07;;;;;;;5.10;4.60;;;4.80;99.90;;;;;;5014113;28;20512;-65
2021/12/19 08:37:33;;;;;;;6.45;4.75;;;4.80;99.90;;;;;;5009539;28;20038;-66
2021/12/19 08:39:58;;;;;;;6.57;4.30;;;4.80;99.90;;;;;;5009089;28;20409;-65
2021/12/19 08:42:24;;;;;;;5.82;4.43;;;4.80;99.90;;;;;;5009495;28;20026;-65
2021/12/19 08:44:50;;;;;;;5.20;3.67;;;4.80;99.90;;;;;;5003866;28;20030;-66
2021/12/19 08:47:17;;;;;;;5.93;4.70;;;4.90;99.90;;;;;;5004793;28;20433;-66
2021/12/19 08:49:43;;;;;;;5.18;4.68;;;4.90;99.90;;;;;;5008884;28;20026;-66
2021/12/19 08:52:10;;;;;;;5.03;4.32;;;4.90;99.90;;;;;;5008201;28;20041;-66
2021/12/19 08:54:36;;;;;;;5.28;4.20;;;4.90;99.90;;;;;;5007888;28;20508;-65
2021/12/19 08:57:02;;;;;;;6.03;4.63;;;4.90;99.90;;;;;;5006660;28;20092;-65
2021/12/19 08:59:29;;;;;;;5.25;4.28;;;5.00;99.90;;;;;;5007394;28;20030;-67
2021/12/19 09:01:58;;;;;;;4.95;4.10;;;5.00;99.90;;;;;;5010854;28;20072;-66
2021/12/19 09:04:23;;;;;;;4.80;4.30;;;5.00;99.90;;;;;;5011337;28;20029;-65
2021/12/19 09:06:49;;;;;;;5.78;4.20;;;5.00;99.90;;;;;;5009717;28;20030;-65
2021/12/19 09:09:18;;;;;;;5.97;4.45;;;5.10;99.90;;;;;;5004217;28;20018;-66
2021/12/19 09:11:44;;;;;;;5.03;4.10;;;5.10;99.90;;;;;;5020765;28;20037;-67
2021/12/19 09:14:10;;;;;;;5.00;4.22;;;5.10;99.90;;;;;;5008641;28;20038;-67
2021/12/19 09:16:36;;;;;;;5.20;4.20;;;5.20;99.90;;;;;;5021872;28;20030;-66
2021/12/19 09:19:01;;;;;;;6.65;3.90;;;5.20;99.90;;;;;;4989184;28;20045;-66
2021/12/19 09:21:27;;;;;;;5.80;4.00;;;5.20;99.90;;;;;;5007924;28;20084;-66
2021/12/19 09:23:56;;;;;;;6.10;4.13;;;5.20;99.90;;;;;;5007816;28;20022;-66
2021/12/19 09:26:21;;;;;;;5.45;3.92;;;5.20;99.90;;;;;;5007208;28;20030;-66
2021/12/19 09:28:47;;;;;;;7.07;4.63;;;5.30;99.90;;;;;;5008353;28;20033;-66
2021/12/19 09:31:13;;;;;;;6.78;5.28;;;5.30;99.90;;;;;;5004097;28;20109;-66
2021/12/19 09:33:38;;;;;;;5.43;4.80;;;5.30;99.90;;;;;;5008248;28;20113;-65
2021/12/19 09:36:04;;;;;;;5.20;4.43;;;5.40;99.90;;;;;;5004043;28;20450;-68
2021/12/19 09:38:30;;;;;;;5.00;4.28;;;5.40;99.90;;;;;;4997964;28;20033;-67
2021/12/19 09:41:00;;;;;;;5.47;4.00;;;5.40;99.90;;;;;;5006600;28;20417;-68
2021/12/19 09:43:42;;;;;;;4.68;4.15;;;5.40;99.90;;;;;;5004713;28;20023;-65
2021/12/19 09:46:17;;;;;;;5.63;4.68;;;5.40;99.90;;;;;;5008069;28;20046;-68
2021/12/19 09:48:47;;;;;;;6.82;4.70;;;5.40;99.90;;;;;;5003884;28;20034;-66
2021/12/19 09:51:15;;;;;;;5.18;4.28;;;5.40;99.90;;;;;;5009025;28;20064;-64
2021/12/19 09:53:41;;;;;;;5.47;4.32;;;5.40;99.90;;;;;;5008028;28;20038;-64
2021/12/19 09:56:08;;;;;;;5.25;4.38;;;5.40;99.90;;;;;;5007191;28;20445;-64
2021/12/19 09:58:35;;;;;;;6.32;4.85;;;5.40;99.90;;;;;;5005829;28;20163;-64
2021/12/19 10:01:04;;;;;;;6.10;4.45;;;5.40;99.90;;;;;;5007354;28;20397;-64
2021/12/19 10:03:30;;;;;;;5.43;4.50;;;5.50;99.90;;;;;;5006926;28;20117;-64
2021/12/19 10:06:16;;;;;;;7.05;4.72;;;5.40;99.90;;;;;;5007930;28;20140;-64
2021/12/19 10:08:43;;;;;;;6.07;5.07;;;5.50;99.90;;;;;;5006683;28;20401;-64
2021/12/19 10:11:44;;;;;;;7.20;5.50;;;5.50;99.90;;;;;;5003967;28;20113;-64
2021/12/19 10:14:24;;;;;;;5.65;4.63;;;5.50;99.90;;;;;;5002803;28;20033;-64
2021/12/19 10:16:49;;;;;;;6.97;5.28;;;5.50;99.90;;;;;;5007327;28;20040;-64
2021/12/19 10:19:15;;;;;;;7.10;5.15;;;5.40;99.90;;;;;;5007731;28;20022;-64
2021/12/19 10:21:41;;;;;;;6.35;5.72;;;5.50;99.90;;;;;;5001452;28;20125;-64
2021/12/19 10:24:06;;;;;;;7.05;6.00;;;5.50;99.90;;;;;;4996370;28;20084;-64
2021/12/19 10:26:43;;;;;;;6.25;5.05;;;5.50;99.90;;;;;;5003700;28;20052;-64
2021/12/19 10:29:10;;;;;;;5.88;5.28;;;5.50;99.90;;;;;;5003245;28;20053;-65
2021/12/19 10:31:36;;;;;;;7.57;5.80;;;5.50;99.90;;;;;;5003261;28;20057;-65
2021/12/19 10:34:22;;;;;;;7.75;5.88;;;5.60;99.90;;;;;;5005438;28;20045;-64
2021/12/19 10:36:48;;;;;;;5.78;5.13;;;5.60;99.90;;;;;;5001866;28;20734;-64
2021/12/19 10:39:16;;;;;;;6.47;5.20;;;5.60;99.90;;;;;;5006563;28;20066;-64
2021/12/19 10:41:43;;;;;;;6.05;4.72;;;5.60;99.90;;;;;;5007732;28;20593;-64
2021/12/19 10:45:29;;;;;;;6.00;4.90;;;5.60;99.90;;;;;;5006216;28;20034;-64
2021/12/19 10:47:25;;;;;;;5.75;5.25;;;5.70;99.90;;;;;;5001970;28;20022;-64
2021/12/19 10:49:51;;;;;;;5.80;5.20;;;5.60;99.90;;;;;;5003716;28;20037;-64
2021/12/19 10:52:35;;;;;;;6.93;4.90;;;5.60;99.90;;;;;;5012863;28;20120;-64
2021/12/19 10:55:05;;;;;;;7.88;5.40;;;5.60;99.90;;;;;;5003635;28;20037;-64
2021/12/19 10:57:37;;;;;;;5.22;4.70;;;5.60;99.90;;;;;;5005228;28;20076;-64
2021/12/19 11:00:24;;;;;;;6.43;5.50;;;5.60;99.90;;;;;;5007613;28;20022;-64
2021/12/19 11:02:50;;;;;;;5.13;4.63;;;5.60;99.90;;;;;;5005256;28;20030;-64
2021/12/19 11:05:38;;;;;;;7.30;5.95;;;5.60;99.90;;;;;;5004605;28;20563;-64
2021/12/19 11:08:06;;;;;;;6.57;4.75;;;5.60;99.90;;;;;;5004115;28;20057;-64
2021/12/19 11:10:33;;;;;;;5.90;4.78;;;5.70;99.90;;;;;;5004562;28;20061;-64
2021/12/19 11:13:07;;;;;;;5.43;4.93;;;5.70;99.90;;;;;;5006131;28;20113;-64
2021/12/19 11:15:33;;;;;;;5.72;4.97;;;5.70;99.90;;;;;;5018223;28;20058;-64
2021/12/19 11:17:59;;;;;;;5.68;4.63;;;5.70;99.90;;;;;;5004519;28;20115;-64
2021/12/19 11:20:24;;;;;;;5.53;4.57;;;5.70;99.90;;;;;;5006160;28;20034;-64
2021/12/19 11:22:50;;;;;;;6.22;4.80;;;5.70;99.90;;;;;;5005561;28;20029;-64
2021/12/19 11:25:16;;;;;;;5.00;3.95;;;5.70;99.90;;;;;;5005625;28;20072;-64
2021/12/19 11:27:44;;;;;;;5.57;4.25;;;5.70;99.90;;;;;;5001614;28;20039;-64
2021/12/19 11:30:12;;;;;;;4.93;4.15;;;5.70;99.90;;;;;;5005562;28;20128;-64
2021/12/19 11:32:54;;;;;;;6.40;5.38;;;5.70;99.90;;;;;;5006618;28;20490;-64
2021/12/19 11:35:25;;;;;;;5.35;4.65;;;5.80;99.90;;;;;;5005190;28;20034;-64
2021/12/19 11:37:55;;;;;;;6.30;4.28;;;5.80;99.90;;;;;;5005052;28;20458;-64
2021/12/19 11:40:22;;;;;;;4.78;4.28;;;5.80;99.90;;;;;;5003704;28;20050;-64
2021/12/19 11:42:48;;;;;;;5.97;4.53;;;5.80;99.90;;;;;;5003109;28;20512;-64
2021/12/19 11:47:55;;;;;;;6.47;4.55;;;5.80;99.90;;;;;;5002102;28;20029;-64
2021/12/19 11:50:26;;;;;;;5.50;4.00;;;5.80;99.90;;;;;;5005309;28;20026;-64
2021/12/19 11:52:55;;;;;;;5.68;4.68;;;5.80;99.90;;;;;;5006116;28;20030;-64
2021/12/19 11:55:41;;;;;;;4.88;4.22;;;5.80;99.90;;;;;;5006163;28;20038;-64
2021/12/19 11:58:07;;;;;;;6.68;4.78;;;5.80;99.90;;;;;;5004232;28;20037;-64
2021/12/19 12:00:38;;;;;;;5.78;4.55;;;5.80;99.90;;;;;;5002843;28;20029;-64
2021/12/19 12:03:13;;;;;;;;;;;5.80;99.90;;;;;;5017889;28;20482;-65
2021/12/19 12:05:38;;;;;;;6.18;4.30;;;5.80;99.90;;;;;;5004215;28;19924;-64
2021/12/19 12:08:04;;;;;;;6.00;4.50;;;5.80;99.90;;;;;;5005816;28;20026;-64
2021/12/19 12:10:54;;;;;;;6.38;4.68;;;5.80;99.90;;;;;;5005952;28;20084;-64
2021/12/19 12:13:26;;;;;;;5.07;4.47;;;5.80;99.90;;;;;;5001728;28;20481;-64
2021/12/19 12:16:08;;;;;;;5.40;4.40;;;5.80;99.90;;;;;;5007769;28;20069;-64
2021/12/19 12:18:34;;;;;;;6.22;4.75;;;5.80;99.90;;;;;;5006229;28;20041;-64
2021/12/19 12:21:22;;;;;;;6.15;4.70;;;5.80;99.90;;;;;;5005172;28;20033;-64
2021/12/19 12:24:00;;;;;;;5.65;4.30;;;5.80;99.90;;;;;;5016852;28;20038;-64
2021/12/19 12:26:32;;;;;;;6.93;5.28;;;5.80;99.90;;;;;;5007162;28;20034;-64
2021/12/19 12:29:01;;;;;;;8.02;4.70;;;5.80;99.90;;;;;;5004963;28;20033;-64
2021/12/19 12:31:27;;;;;;;6.43;5.57;;;5.80;99.90;;;;;;5004316;28;20022;-64
2021/12/19 12:33:54;;;;;;;6.32;4.90;;;5.80;99.90;;;;;;5006140;28;20677;-64
2021/12/19 12:36:21;;;;;;;7.65;5.78;;;5.80;99.90;;;;;;5001240;28;20096;-64
2021/12/19 12:38:51;;;;;;;9.13;5.85;;;5.80;99.90;;;;;;5005861;28;20032;-64
2021/12/19 12:44:07;;;;;;;11.63;6.70;;;5.80;99.90;;;;;;5002526;28;20570;-64
2021/12/19 12:46:34;;;;;;;10.85;9.55;;;5.80;99.90;;;;;;5005644;28;20481;-64
2021/12/19 12:49:04;;;;;;;9.30;6.85;;;5.70;99.90;;;;;;5002836;28;20118;-64
2021/12/19 12:52:10;;;;;;;7.65;6.85;;;5.70;99.90;;;;;;5004456;28;20033;-64
2021/12/19 12:54:38;;;;;;;8.77;7.13;;;5.70;99.90;;;;;;4956877;28;20100;-64
2021/12/19 12:57:09;;;;;;;8.18;6.93;;;5.70;99.90;;;;;;4995798;28;20033;-66
2021/12/19 12:59:39;;;;;;;8.90;7.95;;;5.70;99.90;;;;;;5009978;28;20110;-64
2021/12/19 13:02:18;;;;;;;6.15;5.55;;;5.70;99.90;;;;;;5007699;28;20045;-64
2021/12/19 13:04:46;;;;;;;8.38;6.50;;;5.70;99.90;;;;;;5006228;28;20089;-64
2021/12/19 13:07:13;;;;;;;8.73;7.30;;;5.70;99.90;;;;;;5006853;28;20030;-64
2021/12/19 13:09:43;;;;;;;11.82;10.48;;;5.70;99.90;;;;;;5006619;28;20037;-64
2021/12/19 13:12:25;;;;;;;10.77;9.50;;;5.70;99.90;;;;;;5007225;28;20026;-65
2021/12/19 13:14:53;;;;;;;8.70;7.85;;;5.70;99.90;;;;;;5010027;28;20029;-64
2021/12/19 13:17:28;;;;;;;30.25;27.50;;;5.60;99.90;;;;;;5005935;28;20029;-64
2021/12/19 13:20:04;;;;;;;7.25;6.50;;;5.70;99.90;;;;;;5008611;28;20038;-64
2021/12/19 13:22:37;;;;;;;7.50;6.47;;;5.80;99.90;;;;;;5005615;28;20050;-64
2021/12/19 13:25:26;;;;;;;8.25;6.80;;;5.80;99.90;;;;;;5006236;28;20026;-64
2021/12/19 13:28:00;;;;;;;7.57;6.78;;;5.80;99.90;;;;;;4999901;28;20687;-64
2021/12/19 13:30:29;;;;;;;10.48;9.35;;;5.80;99.90;;;;;;5004692;28;20030;-65
2021/12/19 13:32:57;;;;;;;8.75;7.95;;;5.80;99.90;;;;;;5006026;28;20027;-64
2021/12/19 13:35:28;;;;;;;8.75;7.47;;;5.90;99.90;;;;;;5008759;28;20070;-64
2021/12/19 13:38:03;;;;;;;;;;;5.80;99.90;;;;;;5008696;28;20252;-64
2021/12/19 13:40:45;;;;;;;7.53;6.82;;;5.80;99.90;;;;;;5004146;28;19917;-64
2021/12/19 13:43:23;;;;;;;7.70;7.00;;;5.80;99.90;;;;;;5003476;28;20034;-64
2021/12/19 13:45:56;;;;;;;7.82;6.53;;;5.80;99.90;;;;;;5005545;28;20478;-66
2021/12/19 13:48:29;;;;;;;7.43;6.10;;;5.80;99.90;;;;;;5006366;28;20034;-66
2021/12/19 13:51:18;;;;;;;7.43;6.20;;;5.80;99.90;;;;;;5007818;28;20037;-68
2021/12/19 13:53:46;;;;;;;7.70;6.90;;;5.80;99.90;;;;;;5009253;28;20088;-66
2021/12/19 13:56:13;;;;;;;10.07;7.57;;;5.80;99.90;;;;;;5006059;28;20034;-66
2021/12/19 13:58:43;;;;;;;10.05;6.07;;;5.80;99.90;;;;;;5006241;28;20045;-68
2021/12/19 14:01:13;;;;;;;6.47;5.50;;;5.70;99.90;;;;;;5005486;28;20125;-66
2021/12/19 14:03:48;;;;;;;8.52;6.50;;;5.70;99.90;;;;;;5007479;28;20033;-65
2021/12/19 14:06:21;;;;;;;9.10;7.43;;;5.70;99.90;;;;;;5005742;28;20490;-66
2021/12/19 14:08:58;;;;;;;10.52;7.90;;;5.70;99.90;;;;;;5005964;28;20116;-66
2021/12/19 14:11:28;;;;;;;8.50;6.97;;;5.70;99.90;;;;;;5009622;28;20109;-66
2021/12/19 14:17:07;;;;;;;9.23;7.35;;;5.70;99.90;;;;;;5009108;28;20025;-66
2021/12/19 14:19:37;;;;;;;13.00;11.75;;;5.60;99.90;;;;;;5007779;28;20034;-66
2021/12/19 14:22:04;;;;;;;9.88;8.88;;;5.60;99.90;;;;;;5007513;28;20025;-67
2021/12/19 14:24:36;;;;;;;7.43;5.80;;;5.60;99.90;;;;;;5009860;28;20381;-65
2021/12/19 14:27:19;;;;;;;7.15;6.40;;;5.60;99.90;;;;;;4997419;28;20038;-66